Attività con fini culturali e ricreativi - Codice Fiscale 91122750689  

I bollettini meteorologici codificati usati in aviazione sono chiamati METAR. Contengono in ordine: la località, l'orario dell'osservazione, il vento, la visibilità, la copertura nuvolosa con eventuali fenomeni significativi, la temperatura, il punto di rugiada e la pressione atmosferica.    Scopri come leggerli...
Si riportano di seguito le ultime 90 osservazioni meteorologiche effettuate dall'aeroporto di Pescara.

LIBP 300150Z AUTO 20004KT 9999 NCD 13/11 Q1016
LIBP 300050Z AUTO 20005KT 9999 NCD 14/11 Q1016
LIBP 292350Z AUTO 20005KT 9999 NCD 14/12 Q1016
LIBP 292250Z AUTO 21005KT 9999 NCD 15/12 Q1016
LIBP 292150Z AUTO 22003KT 9999 NCD 16/12 Q1016
LIBP 292050Z 21005KT CAVOK 17/12 Q1016
LIBP 291950Z 01002KT CAVOK 20/13 Q1016
LIBP 291850Z VRB02KT CAVOK 22/11 Q1016
LIBP 291750Z 06003KT CAVOK 24/12 Q1016
LIBP 291650Z 06005KT 040V100 CAVOK 25/10 Q1016
LIBP 291550Z 08007KT 050V110 CAVOK 26/09 Q1016
LIBP 291450Z 07008KT CAVOK 26/12 Q1017
LIBP 291350Z 06009KT CAVOK 26/10 Q1017
LIBP 291250Z 06009KT 030V090 CAVOK 27/10 Q1017
LIBP 291150Z 08008KT 050V110 CAVOK 26/11 Q1018
LIBP 291050Z 06009KT 030V090 CAVOK 25/12 Q1018
LIBP 290950Z 06007KT 030V090 CAVOK 26/13 Q1018
LIBP 290850Z VRB02KT CAVOK 26/10 Q1018
LIBP 290750Z 24003KT 190V300 CAVOK 24/12 Q1018
LIBP 290650Z 21007KT CAVOK 21/11 Q1018
LIBP 290550Z 24005KT CAVOK 17/10 Q1019
LIBP 290450Z AUTO 23005KT 9999 NCD 14/10 Q1019
LIBP 290350Z AUTO 23005KT 9999 NCD 11/09 Q1019
LIBP 290250Z AUTO 22005KT 9999 NCD 11/09 Q1019
LIBP 290150Z AUTO 23005KT 9999 NCD 12/10 Q1019
LIBP 290050Z AUTO 22005KT 9999 NCD 12/10 Q1019
LIBP 282350Z 22004KT CAVOK 13/10 Q1020
LIBP 282250Z 23005KT CAVOK 14/11 Q1020
LIBP 282150Z 21005KT CAVOK 14/11 Q1020
LIBP 282050Z 21004KT CAVOK 15/11 Q1020
LIBP 281950Z 34002KT CAVOK 19/10 Q1020
LIBP 281850Z 36002KT CAVOK 21/10 Q1020
LIBP 281750Z 05003KT CAVOK 23/10 Q1020
LIBP 281650Z 05003KT 010V080 CAVOK 25/09 Q1020
LIBP 281550Z 06005KT CAVOK 26/09 Q1020
LIBP 281450Z 06008KT CAVOK 26/09 Q1021
LIBP 281350Z 07008KT CAVOK 26/09 Q1021
LIBP 281250Z 04008KT 360V080 CAVOK 26/12 Q1021
LIBP 281150Z 03007KT 010V070 CAVOK 25/13 Q1021
LIBP 281050Z 02008KT CAVOK 25/13 Q1022
LIBP 280950Z 04009KT 360V060 CAVOK 25/12 Q1022
LIBP 280850Z 03007KT 340V060 CAVOK 25/11 Q1021
LIBP 280750Z VRB02KT CAVOK 24/12 Q1021
LIBP 280650Z 22005KT CAVOK 21/12 Q1021
LIBP 280550Z 23005KT CAVOK 17/11 Q1021
LIBP 280450Z AUTO 24005KT 9999 NCD 15/11 Q1021
LIBP 280350Z AUTO 25004KT 9999 NCD 13/10 Q1021
LIBP 280250Z AUTO 23005KT 9999 NCD 13/10 Q1021
LIBP 280150Z AUTO 23004KT 9999 NCD 13/10 Q1021
LIBP 280050Z AUTO 24005KT 9999 NCD 15/10 Q1021
LIBP 272350Z AUTO 24006KT 9999 NCD 15/11 Q1021
LIBP 272250Z AUTO 24006KT 9999 NCD 16/11 Q1021
LIBP 272150Z AUTO 24006KT 9999 NCD 16/12 Q1021
LIBP 272050Z 25005KT CAVOK 18/12 Q1021
LIBP 271950Z 24003KT 200V290 CAVOK 20/11 Q1020
LIBP 271850Z 22003KT 190V270 CAVOK 21/11 Q1019
LIBP 271750Z 36006KT CAVOK 23/11 Q1019
LIBP 271650Z 35008KT 300V020 CAVOK 24/11 Q1019
LIBP 271550Z 01009KT 330V040 CAVOK 24/11 Q1019
LIBP 271450Z 01010KT 330V040 CAVOK 24/12 Q1019
LIBP 271350Z 03010KT CAVOK 24/12 Q1019
LIBP 271250Z 36010KT 320V030 CAVOK 25/12 Q1020
LIBP 271150Z 02010KT 330V040 CAVOK 24/10 Q1020
LIBP 271050Z 01010KT 330V040 CAVOK 24/12 Q1020
LIBP 270950Z 36009KT 300V040 9999 FEW050 24/10 Q1020
LIBP 270850Z 36008KT 300V040 CAVOK 24/10 Q1020
LIBP 270750Z 35006KT 290V060 CAVOK 23/10 Q1020
LIBP 270650Z 24004KT CAVOK 20/11 Q1020
LIBP 270550Z 24005KT CAVOK 17/10 Q1020
LIBP 270450Z AUTO 24005KT 9999 NCD 14/10 Q1019
LIBP 270350Z AUTO 24005KT 9999 NCD 12/10 Q1019
LIBP 270250Z AUTO 24005KT 9999 NCD 12/10 Q1019
LIBP 270150Z AUTO 24006KT 9999 NCD 12/10 Q1019
LIBP 270050Z AUTO 24005KT 9999 NCD 13/11 Q1019
LIBP 262350Z AUTO 23005KT 9999 NCD 13/11 Q1019
LIBP 262250Z AUTO 23005KT 9999 NCD 14/11 Q1019
LIBP 262150Z AUTO 22004KT 200V260 9999 NCD 13/11 Q1019
LIBP 261950Z 23004KT CAVOK 17/10 Q1018
LIBP 261850Z VRB02KT CAVOK 19/11 Q1017
LIBP 261750Z 33003KT CAVOK 21/10 Q1017
LIBP 261650Z 01007KT CAVOK 21/10 Q1017
LIBP 261550Z 36010KT 330V030 CAVOK 21/11 Q1017
LIBP 261457Z 02010KT CAVOK 22/11 Q1017
LIBP 261350Z 01012KT 350V050 CAVOK 22/13 Q1017
LIBP 261250Z 02011KT 340V040 CAVOK 22/14 Q1018
LIBP 261150Z 02009KT 340V050 9999 FEW060 23/13 Q1018
LIBP 261050Z 36011KT 330V040 9999 FEW060 22/10 Q1018
LIBP 260950Z 36010KT 320V040 9999 FEW060 22/10 Q1018

Fonte: National Oceanic and Atmospheric Administration (NOAA)

Ultimi caricamenti...


OK-KFN Czech Airlines (CSA) ATR 42-500

 


F-HBBR Cirrus SR-20

 


I-EASN AgustaWestland AW189

Questo sito non utilizza cookie di profilazione. Il sito utilizza cookie tecnici, di analisi anonima di prima parte e di terze parti per servizi di social network.